SETU/TUA METAR and TAF weather

Enter ICAO airport designator
Station Type Date Time Source
SETU METAR 2019/05/17 21:00 UTC NOAA

SETU 172100Z 27004KT 9999 -RA OVC020 12/11 Q1029 RETS


Station Type Date Time Source
SETU Decoded METAR 2019/05/17 21:00 UTC NOAA

Tulcan / El Rosal, Ecuador (SETU) 00-49N 077-42W
May 17, 2019 - 05:00 PM EDT / 2019.05.17 2100 UTC
Wind: from the W (270 degrees) at 5 MPH (4 KT):0
Visibility: greater than 7 mile(s):0
Sky conditions: overcast
Weather: light rain
Temperature: 53 F (12 C)
Dew Point: 51 F (11 C)
Relative Humidity: 93%
Pressure (altimeter): 30.39 in. Hg (1029 hPa)
ob: SETU 172100Z 27004KT 9999 -RA OVC020 12/11 Q1029 RETS
cycle: 21

Station Type Date Time Source
SETU TAF UTC NOAA

Error!

Example: see airport list